Time;durP1;ratioP1;P1;durP2;ratioP2;P2;SDS_P1;SDS_P2;PMS_P1;PMS_P2;Temp;Humidity;BMP_temperature;BMP_pressure;BME280_temperature;BME280_humidity;BME280_pressure;Samples;Min_cycle;Max_cycle;Signal;HPM_P1;HPM_P2
2021/04/17 00:00:18;;;;;;;5.45;5.05;;;;;;;-3.26;93.52;93418.53;2098502;28;20020;-80
2021/04/17 00:01:18;;;;;;;5.43;5.03;;;;;;;-3.23;93.23;93412.66;2090011;28;20832;-81
2021/04/17 00:02:21;;;;;;;5.70;5.30;;;;;;;-3.23;93.42;93417.13;2073425;28;20441;-81
2021/04/17 00:03:21;;;;;;;5.97;5.47;;;;;;;-3.24;93.41;93415.63;2090382;28;20091;-80
2021/04/17 00:04:26;;;;;;;5.85;5.43;;;;;;;-3.25;93.25;93417.44;2081594;28;20517;-80
2021/04/17 00:05:26;;;;;;;5.53;5.13;;;;;;;-3.31;92.59;93418.75;2082671;28;20049;-81
2021/04/17 00:06:27;;;;;;;5.38;4.97;;;;;;;-3.30;91.88;93417.66;2090365;28;20450;-81
2021/04/17 00:07:27;;;;;;;4.78;4.38;;;;;;;-3.30;91.65;93415.78;2089753;28;20064;-81
2021/04/17 00:08:28;;;;;;;5.60;5.10;;;;;;;-3.29;91.86;93413.97;2090182;28;20071;-81
2021/04/17 00:09:29;;;;;;;5.53;5.13;;;;;;;-3.38;91.93;93421.88;2090614;28;20033;-81
2021/04/17 00:10:29;;;;;;;5.20;4.80;;;;;;;-3.37;91.56;93415.56;2098332;28;20024;-81
2021/04/17 00:11:30;;;;;;;5.25;4.85;;;;;;;-3.41;91.56;93406.84;2089858;28;20106;-82
2021/04/17 00:12:30;;;;;;;5.60;5.05;;;;;;;-3.43;91.33;93403.00;2089778;28;20025;-82
2021/04/17 00:13:31;;;;;;;5.32;4.93;;;;;;;-3.41;91.65;93404.22;2098327;28;20039;-82
2021/04/17 00:14:34;;;;;;;5.72;5.22;;;;;;;-3.54;91.40;93402.63;2098140;28;20151;-81
2021/04/17 00:15:35;;;;;;;5.60;5.10;;;;;;;-3.47;91.08;93409.94;2097155;28;20392;-81
2021/04/17 00:16:35;;;;;;;5.13;4.72;;;;;;;-3.50;91.45;93406.13;2104744;28;20450;-81
2021/04/17 00:17:36;;;;;;;5.38;4.88;;;;;;;-3.49;91.87;93407.66;2106162;28;20042;-81
2021/04/17 00:18:36;;;;;;;4.70;4.40;;;;;;;-3.42;91.34;93407.91;2102335;28;20581;-81
2021/04/17 00:19:37;;;;;;;5.03;4.63;;;;;;;-3.46;91.41;93404.41;2087692;28;20025;-81
2021/04/17 00:20:37;;;;;;;5.07;4.68;;;;;;;-3.55;91.13;93401.88;2075462;28;20057;-80
2021/04/17 00:21:38;;;;;;;5.80;5.35;;;;;;;-3.56;91.23;93402.97;2093903;28;20020;-81
2021/04/17 00:22:39;;;;;;;5.47;4.97;;;;;;;-3.62;92.10;93403.47;2093806;28;20445;-81
2021/04/17 00:23:39;;;;;;;5.57;5.07;;;;;;;-3.62;92.98;93399.00;2098120;28;20033;-81
2021/04/17 00:24:40;;;;;;;5.50;5.10;;;;;;;-3.53;93.29;93404.16;2097915;28;20036;-81
2021/04/17 00:25:41;;;;;;;5.07;4.68;;;;;;;-3.52;92.48;93405.69;2089884;28;20410;-81
2021/04/17 00:26:42;;;;;;;5.22;4.82;;;;;;;-3.49;91.93;93404.28;2092396;28;20492;-81
2021/04/17 00:27:42;;;;;;;5.55;5.07;;;;;;;-3.55;92.91;93407.09;2093663;28;20455;-81
2021/04/17 00:28:43;;;;;;;5.70;5.20;;;;;;;-3.52;92.67;93392.63;2081677;28;20448;-81
2021/04/17 00:29:43;;;;;;;5.38;4.88;;;;;;;-3.55;92.60;93399.25;2095031;28;20025;-81
2021/04/17 00:30:44;;;;;;;5.78;5.28;;;;;;;-3.56;92.13;93402.19;2098160;28;20036;-81
2021/04/17 00:31:44;;;;;;;5.22;4.82;;;;;;;-3.58;92.39;93405.13;2101144;28;20032;-81
2021/04/17 00:32:45;;;;;;;5.65;5.15;;;;;;;-3.62;92.76;93404.22;2089510;28;20059;-80
2021/04/17 00:33:45;;;;;;;5.60;5.20;;;;;;;-3.51;92.83;93396.78;2089658;28;20023;-81
2021/04/17 00:34:46;;;;;;;5.53;5.05;;;;;;;-3.59;91.89;93397.59;2097712;28;20398;-81
2021/04/17 00:35:47;;;;;;;5.60;5.20;;;;;;;-3.61;92.09;93397.91;2089817;28;20048;-81
2021/04/17 00:36:47;;;;;;;6.15;5.65;;;;;;;-3.57;92.72;93400.66;2089432;28;20037;-81
2021/04/17 00:37:47;;;;;;;5.60;5.15;;;;;;;-3.47;92.97;93404.72;2089570;28;20067;-81
2021/04/17 00:38:48;;;;;;;6.10;5.60;;;;;;;-3.53;92.89;93408.63;2089763;28;20462;-81
2021/04/17 00:39:50;;;;;;;5.05;4.68;;;;;;;-3.59;93.45;93397.59;2090458;28;20032;-80
2021/04/17 00:40:50;;;;;;;5.75;5.35;;;;;;;-3.59;93.62;93393.16;2089774;28;20167;-81
2021/04/17 00:41:51;;;;;;;5.50;5.10;;;;;;;-3.60;92.82;93396.06;2089559;28;20843;-81
2021/04/17 00:42:52;;;;;;;5.57;5.07;;;;;;;-3.63;92.82;93396.72;2106164;28;20031;-81
2021/04/17 00:43:52;;;;;;;6.35;5.85;;;;;;;-3.66;92.66;93394.72;2097781;28;20382;-81
2021/04/17 00:44:54;;;;;;;5.65;5.15;;;;;;;-3.70;92.86;93392.00;2097220;28;20029;-81
2021/04/17 00:45:54;;;;;;;6.30;5.68;;;;;;;-3.62;92.95;93393.78;2097907;28;20159;-80
2021/04/17 00:46:55;;;;;;;6.18;5.60;;;;;;;-3.63;94.09;93394.88;2089280;28;20800;-81
2021/04/17 00:47:56;;;;;;;5.63;5.22;;;;;;;-3.68;93.72;93391.69;2097884;28;20037;-81
2021/04/17 00:48:56;;;;;;;5.90;5.40;;;;;;;-3.66;94.00;93389.50;2081502;28;20029;-81
2021/04/17 00:49:57;;;;;;;5.82;5.32;;;;;;;-3.61;94.68;93391.94;2089660;28;20033;-81
2021/04/17 00:50:58;;;;;;;5.53;5.13;;;;;;;-3.65;94.32;93386.56;2089533;28;20028;-81
2021/04/17 00:51:59;;;;;;;5.93;5.50;;;;;;;-3.68;94.24;93386.47;2089294;28;20033;-81
2021/04/17 00:53:00;;;;;;;6.28;5.60;;;;;;;-3.68;94.28;93384.63;2089709;28;20128;-81
2021/04/17 00:54:07;;;;;;;6.13;5.57;;;;;;;-3.62;94.24;93377.34;2081135;28;20483;-80
2021/04/17 00:55:09;;;;;;;5.63;5.10;;;;;;;-3.62;93.71;93380.72;2082135;28;20021;-81
2021/04/17 00:56:11;;;;;;;5.93;5.47;;;;;;;-3.61;94.15;93379.63;2081819;28;20532;-80
2021/04/17 00:57:12;;;;;;;6.50;5.85;;;;;;;-3.60;94.48;93383.78;2083105;28;20452;-81
2021/04/17 00:58:12;;;;;;;6.25;5.82;;;;;;;-3.58;95.15;93375.63;2082171;28;20431;-81
2021/04/17 00:59:14;;;;;;;6.18;5.68;;;;;;;-3.55;95.33;93380.22;2098423;28;20657;-81
2021/04/17 01:00:16;;;;;;;6.35;5.85;;;;;;;-3.59;95.03;93381.94;2091813;28;20041;-81
2021/04/17 01:01:20;;;;;;;5.97;5.47;;;;;;;-3.61;94.51;93382.25;2082467;28;20484;-82
2021/04/17 01:02:34;;;;;;;5.50;5.10;;;;;;;-3.58;94.26;93379.00;2081804;28;20452;-81
2021/04/17 01:03:56;;;;;;;6.00;5.50;;;;;;;-3.55;94.63;93380.97;2093884;28;20987;-81
2021/04/17 01:05:00;;;;;;;6.03;5.47;;;;;;;-3.48;95.03;93379.69;2098297;28;20458;-82
2021/04/17 01:06:09;;;;;;;6.53;5.80;;;;;;;-3.33;94.79;93381.72;2103585;28;20454;-81
2021/04/17 01:07:19;;;;;;;6.32;5.82;;;;;;;-3.35;95.26;93374.19;2097498;28;20450;-81
2021/04/17 01:08:34;;;;;;;6.20;5.72;;;;;;;-3.29;95.06;93377.38;2098665;28;20074;-81
2021/04/17 01:10:07;;;;;;;6.57;6.07;;;;;;;-3.25;96.06;93374.88;2098305;28;20032;-81
2021/04/17 01:11:16;;;;;;;6.13;5.63;;;;;;;-3.22;96.45;93382.81;2102760;28;20439;-81
2021/04/17 01:12:23;;;;;;;6.10;5.60;;;;;;;-3.19;96.67;93370.97;2107255;28;20583;-80
2021/04/17 01:13:26;;;;;;;6.60;6.00;;;;;;;-3.17;96.36;93379.25;2106794;28;20434;-80
2021/04/17 01:14:29;;;;;;;6.20;5.70;;;;;;;-3.14;96.01;93370.75;2098520;28;20473;-81
2021/04/17 01:15:31;;;;;;;6.28;5.78;;;;;;;-3.12;95.97;93374.56;2095839;28;20922;-81
2021/04/17 01:16:34;;;;;;;6.32;5.82;;;;;;;-3.11;96.00;93378.72;2098356;28;20550;-82
2021/04/17 01:17:38;;;;;;;6.82;6.32;;;;;;;-3.09;95.86;93368.69;2098675;28;20450;-81
2021/04/17 01:18:40;;;;;;;6.63;6.07;;;;;;;-3.11;95.71;93365.66;2099750;28;20827;-81
2021/04/17 01:19:55;;;;;;;6.50;6.00;;;;;;;-3.11;95.86;93370.88;2091243;28;21323;-81
2021/04/17 01:21:04;;;;;;;6.53;6.03;;;;;;;-3.09;96.23;93362.72;2100863;28;21072;-79
2021/04/17 01:22:16;;;;;;;5.88;5.45;;;;;;;-3.02;96.03;93370.03;2095293;28;20443;-80
2021/04/17 01:23:42;;;;;;;;;;;;;;;-3.05;95.67;93363.59;2102524;28;20461;-80
2021/04/17 01:25:11;;;;;;;5.05;4.65;;;;;;;-2.97;95.09;93359.38;2103019;28;20249;-82
2021/04/17 01:26:20;;;;;;;5.93;5.50;;;;;;;-2.99;95.39;93359.69;2104533;28;20438;-81
2021/04/17 01:27:28;;;;;;;6.25;5.75;;;;;;;-3.01;94.65;93372.31;2094843;28;20454;-80
2021/04/17 01:28:34;;;;;;;6.07;5.47;;;;;;;-3.00;95.04;93367.84;2102593;28;20465;-84
2021/04/17 01:29:40;;;;;;;6.30;5.75;;;;;;;-3.00;95.22;93362.63;2107152;28;20418;-81
2021/04/17 01:30:44;;;;;;;6.38;5.88;;;;;;;-2.96;95.58;93366.13;2106715;28;20414;-81
2021/04/17 01:32:01;;;;;;;6.28;5.60;;;;;;;-3.00;95.05;93363.38;2100632;28;20526;-82
2021/04/17 01:33:04;;;;;;;6.22;5.72;;;;;;;-2.99;94.54;93357.06;2089442;28;20444;-80
2021/04/17 01:34:09;;;;;;;6.47;5.82;;;;;;;-3.00;94.34;93357.41;2086046;28;21095;-82
2021/04/17 01:35:16;;;;;;;6.78;6.22;;;;;;;-2.98;95.81;93363.09;2092793;28;21009;-81
2021/04/17 01:36:26;;;;;;;6.60;6.10;;;;;;;-2.97;95.38;93362.00;2094198;28;20469;-81
2021/04/17 01:37:53;;;;;;;6.43;5.82;;;;;;;-2.90;95.17;93354.34;2088902;28;20525;-81
2021/04/17 01:39:01;;;;;;;6.18;5.68;;;;;;;-2.89;95.78;93354.03;2096865;28;20447;-80
2021/04/17 01:40:11;;;;;;;6.88;6.28;;;;;;;-2.88;95.92;93352.19;2102661;28;20710;-80
2021/04/17 01:41:20;;;;;;;6.13;5.63;;;;;;;-2.87;96.39;93344.00;2101113;28;20085;-81
2021/04/17 01:42:23;;;;;;;6.70;6.20;;;;;;;-2.88;96.19;93345.09;2086979;28;20479;-81
2021/04/17 01:43:28;;;;;;;7.90;7.20;;;;;;;-2.87;96.66;93345.88;2092943;28;20455;-81
2021/04/17 01:44:34;;;;;;;7.63;7.03;;;;;;;-2.86;96.27;93350.00;2077336;28;20503;-81
2021/04/17 01:45:44;;;;;;;7.82;6.70;;;;;;;-2.79;95.81;93348.38;2091910;28;21130;-80
2021/04/17 01:46:58;;;;;;;7.25;6.65;;;;;;;-2.82;95.68;93343.03;2103052;28;20458;-81
2021/04/17 01:48:02;;;;;;;7.13;6.53;;;;;;;-2.82;95.83;93349.03;2097043;28;20522;-81
2021/04/17 01:49:08;;;;;;;7.68;7.00;;;;;;;-2.82;96.37;93343.78;2093668;28;20443;-81
2021/04/17 01:50:29;;;;;;;8.05;7.38;;;;;;;-2.86;96.50;93352.63;2106617;28;20508;-80
2021/04/17 01:51:57;;;;;;;7.60;7.00;;;;;;;-2.84;97.43;93347.84;2105066;28;20430;-81
2021/04/17 01:53:08;;;;;;;7.07;6.57;;;;;;;-2.89;97.13;93342.81;2109802;28;20457;-80
2021/04/17 01:54:22;;;;;;;7.47;6.88;;;;;;;-2.87;97.33;93348.47;2102158;28;20453;-81
2021/04/17 01:55:32;;;;;;;7.95;7.25;;;;;;;-2.80;98.58;93340.88;2096978;28;20835;-80
2021/04/17 01:56:37;;;;;;;8.20;7.50;;;;;;;-2.76;97.94;93341.00;2095675;28;20439;-81
2021/04/17 01:57:44;;;;;;;8.05;7.35;;;;;;;-2.73;98.33;93345.56;2085992;28;20868;-81
2021/04/17 01:58:48;;;;;;;7.63;7.03;;;;;;;-2.78;97.57;93346.53;2087013;28;21007;-81
2021/04/17 01:59:50;;;;;;;7.30;6.70;;;;;;;-2.74;96.89;93346.66;2085895;28;20984;-82
2021/04/17 02:00:59;;;;;;;7.15;6.55;;;;;;;-2.69;96.70;93343.81;2101387;28;20454;-82
2021/04/17 02:02:03;;;;;;;8.00;7.32;;;;;;;-2.65;96.69;93340.22;2102227;28;20467;-81
2021/04/17 02:04:41;;;;;;;7.30;6.70;;;;;;;-2.58;97.08;93344.91;2135631;27;20921;-80
2021/04/17 02:05:42;;;;;;;8.20;7.50;;;;;;;-2.61;97.28;93341.09;2118112;28;20036;-81
2021/04/17 02:06:43;;;;;;;8.25;7.55;;;;;;;-2.62;96.90;93334.34;2100944;28;20587;-81
2021/04/17 02:07:45;;;;;;;8.55;7.78;;;;;;;-2.60;97.76;93336.63;2116894;27;20043;-81
2021/04/17 02:08:46;;;;;;;8.77;8.00;;;;;;;-2.55;97.94;93337.19;2116091;28;20468;-81
2021/04/17 02:09:46;;;;;;;8.90;8.07;;;;;;;-2.43;99.32;93338.25;2100332;28;20804;-81
2021/04/17 02:10:52;;;;;;;9.88;9.07;;;;;;;-2.47;99.05;93335.53;2109352;28;20036;-80
2021/04/17 02:11:54;;;;;;;9.65;8.73;;;;;;;-2.47;98.79;93334.75;2106140;28;20032;-81
2021/04/17 02:12:57;;;;;;;9.32;8.38;;;;;;;-2.44;98.07;93337.50;2107091;28;20462;-81
2021/04/17 02:14:03;;;;;;;9.43;8.63;;;;;;;-2.44;97.88;93337.50;2100460;28;20507;-80
2021/04/17 02:15:07;;;;;;;8.18;7.47;;;;;;;-2.38;97.12;93335.41;2111237;28;20496;-82
2021/04/17 02:16:31;;;;;;;8.25;7.65;;;;;;;-2.31;97.46;93335.63;2108912;28;20454;-81
2021/04/17 02:17:45;;;;;;;8.30;7.60;;;;;;;-2.31;96.94;93333.00;2098964;28;20472;-83
2021/04/17 02:18:59;;;;;;;8.32;7.63;;;;;;;-2.35;97.19;93340.00;2095015;28;20509;-81
2021/04/17 02:20:13;;;;;;;8.40;7.70;;;;;;;-2.32;97.11;93340.09;2095844;28;20859;-81
2021/04/17 02:21:16;;;;;;;8.38;7.57;;;;;;;-2.20;96.53;93326.22;2104022;28;20439;-82
2021/04/17 02:22:21;;;;;;;8.75;8.05;;;;;;;-2.19;97.15;93332.25;2103100;28;20477;-80
2021/04/17 02:23:28;;;;;;;9.23;8.32;;;;;;;-2.26;97.25;93332.78;2100890;28;20548;-81
2021/04/17 02:24:31;;;;;;;8.93;8.13;;;;;;;-2.29;97.44;93331.56;2102158;28;20459;-81
2021/04/17 02:25:36;;;;;;;9.00;8.30;;;;;;;-2.42;98.50;93326.69;2117713;28;20997;-83
2021/04/17 02:26:39;;;;;;;8.88;8.07;;;;;;;-2.16;97.06;93329.72;2109760;28;20480;-80
2021/04/17 02:27:40;;;;;;;8.57;7.78;;;;;;;-2.21;96.34;93327.31;2099294;28;20501;-81
2021/04/17 02:28:49;;;;;;;8.95;8.25;;;;;;;-2.22;97.33;93327.66;2108831;28;20429;-81
2021/04/17 02:29:55;;;;;;;8.88;8.18;;;;;;;-2.28;97.81;93333.13;2108727;28;20434;-81
2021/04/17 02:31:03;;;;;;;8.98;8.18;;;;;;;-2.29;97.08;93321.09;2101540;28;20443;-81
2021/04/17 02:32:09;;;;;;;8.95;8.05;;;;;;;-2.27;97.16;93326.03;2101004;28;20451;-81
2021/04/17 02:33:32;;;;;;;9.23;7.57;;;;;;;-2.35;97.30;93325.06;2105775;28;21307;-80
2021/04/17 02:34:32;;;;;;;9.70;8.90;;;;;;;-2.34;97.92;93331.03;2110889;28;20465;-80
2021/04/17 02:35:33;;;;;;;9.02;8.23;;;;;;;-2.36;97.91;93326.16;2108747;28;20437;-81
2021/04/17 02:37:07;;;;;;;9.10;8.30;;;;;;;-2.34;97.55;93328.44;2099847;28;20473;-81
2021/04/17 02:38:11;;;;;;;8.50;7.80;;;;;;;-2.36;97.47;93325.41;2106738;28;20416;-82
2021/04/17 02:39:15;;;;;;;8.27;7.60;;;;;;;-2.30;97.47;93332.69;2114043;28;20445;-81
2021/04/17 02:40:16;;;;;;;8.82;8.02;;;;;;;-2.30;97.38;93330.06;2100417;28;20451;-81
2021/04/17 02:41:23;;;;;;;8.25;7.57;;;;;;;-2.34;97.77;93328.44;2108331;28;20407;-81
2021/04/17 02:42:25;;;;;;;8.98;8.13;;;;;;;-2.31;97.32;93338.25;2108284;28;20450;-80
2021/04/17 02:43:29;;;;;;;8.90;8.13;;;;;;;-2.31;97.62;93331.16;2091902;28;20451;-81
2021/04/17 02:44:32;;;;;;;8.88;8.18;;;;;;;-2.28;97.37;93333.13;2091425;28;21011;-83
2021/04/17 02:45:38;;;;;;;9.30;8.50;;;;;;;-2.26;98.28;93326.78;2104174;28;20851;-82
2021/04/17 02:46:38;;;;;;;9.13;8.32;;;;;;;-2.26;98.01;93332.03;2107727;28;20537;-81
2021/04/17 02:47:51;;;;;;;9.20;8.45;;;;;;;-2.15;97.64;93333.09;2100316;28;20463;-81
2021/04/17 02:48:53;;;;;;;9.13;8.32;;;;;;;-2.10;97.51;93335.50;2101227;28;20437;-81
2021/04/17 02:49:57;;;;;;;9.15;8.45;;;;;;;-2.15;97.01;93336.50;2107638;28;20442;-80
2021/04/17 02:51:01;;;;;;;8.98;8.10;;;;;;;-2.16;97.28;93334.19;2108822;28;20462;-81
2021/04/17 02:52:04;;;;;;;9.00;8.30;;;;;;;-2.15;98.56;93336.50;2108793;28;20458;-81
2021/04/17 02:53:06;;;;;;;9.57;8.77;;;;;;;-2.20;97.54;93328.84;2108664;28;20466;-84
2021/04/17 02:54:26;;;;;;;;;;;;;;;;;;;;;
2021/04/17 02:55:27;;;;;;;9.52;8.50;;;;;;;-2.15;97.96;93326.03;2105412;28;20457;-82
2021/04/17 02:56:27;;;;;;;9.38;8.57;;;;;;;-2.21;98.38;93331.81;2100102;28;20024;-81
2021/04/17 02:57:28;;;;;;;9.88;8.98;;;;;;;-2.19;98.30;93327.78;2095670;28;20029;-81
2021/04/17 02:58:28;;;;;;;10.38;9.48;;;;;;;-2.22;98.66;93319.81;2095616;28;20440;-81
2021/04/17 02:59:29;;;;;;;10.13;9.23;;;;;;;-2.20;98.31;93328.09;2103995;28;20025;-81
2021/04/17 03:00:29;;;;;;;9.75;8.88;;;;;;;-2.21;98.94;93329.94;2095952;28;20048;-81
2021/04/17 03:01:30;;;;;;;10.15;9.35;;;;;;;-2.19;99.17;93322.53;2087518;28;20025;-81
2021/04/17 03:02:30;;;;;;;9.80;8.90;;;;;;;-2.24;99.18;93333.22;2087246;28;20025;-81
2021/04/17 03:03:30;;;;;;;10.05;9.20;;;;;;;-2.18;99.06;93324.06;2087535;28;20396;-81
2021/04/17 03:04:31;;;;;;;9.88;8.98;;;;;;;-2.23;99.24;93326.91;2095501;28;20518;-81
2021/04/17 03:05:31;;;;;;;10.20;9.30;;;;;;;-2.22;99.11;93328.41;2095810;28;20043;-81
2021/04/17 03:06:32;;;;;;;9.65;8.85;;;;;;;-2.21;99.05;93326.56;2104521;28;20051;-81
2021/04/17 03:07:33;;;;;;;10.13;9.13;;;;;;;-2.22;99.58;93328.41;2095459;28;20025;-82
2021/04/17 03:08:33;;;;;;;10.05;9.25;;;;;;;-2.18;98.70;93325.91;2095780;28;20025;-81
2021/04/17 03:09:34;;;;;;;9.43;8.63;;;;;;;-2.15;98.10;93327.84;2100941;28;20039;-81
2021/04/17 03:10:35;;;;;;;10.35;9.45;;;;;;;-2.12;97.71;93327.19;2087654;28;20433;-81
2021/04/17 03:11:36;;;;;;;9.70;8.90;;;;;;;-2.14;98.76;93330.16;2087724;28;20032;-81
2021/04/17 03:12:36;;;;;;;9.70;8.80;;;;;;;-2.19;97.52;93325.16;2095512;28;20458;-81
2021/04/17 03:13:37;;;;;;;10.98;9.98;;;;;;;-2.21;98.25;93329.94;2079117;28;20018;-81
2021/04/17 03:14:40;;;;;;;10.15;9.25;;;;;;;-2.14;98.07;93332.03;2079310;28;20053;-80
2021/04/17 03:15:40;;;;;;;9.90;8.75;;;;;;;-2.15;98.05;93330.47;2090484;28;20028;-81
2021/04/17 03:16:41;;;;;;;10.25;9.25;;;;;;;-2.20;98.29;93328.84;2106958;28;20516;-81
2021/04/17 03:17:41;;;;;;;9.70;8.90;;;;;;;-2.12;97.76;93325.34;2098247;28;20082;-82
2021/04/17 03:18:42;;;;;;;10.10;9.20;;;;;;;-2.09;97.70;93331.78;2081968;28;20096;-82
2021/04/17 03:19:43;;;;;;;9.95;9.10;;;;;;;-2.16;97.65;93324.47;2098314;28;20024;-81
2021/04/17 03:20:43;;;;;;;9.75;8.93;;;;;;;-2.12;97.64;93330.56;2098603;28;20087;-81
2021/04/17 03:21:43;;;;;;;9.88;9.02;;;;;;;-2.07;97.81;93330.34;2098554;28;20477;-81
2021/04/17 03:22:44;;;;;;;9.50;8.63;;;;;;;-2.14;98.50;93324.91;2089875;28;20025;-81
2021/04/17 03:23:44;;;;;;;9.77;8.88;;;;;;;-2.16;98.32;93332.31;2098272;28;20113;-81
2021/04/17 03:24:45;;;;;;;10.77;9.77;;;;;;;-2.19;98.93;93327.00;2106924;28;20035;-81
2021/04/17 03:25:45;;;;;;;9.55;8.75;;;;;;;-2.16;98.42;93327.09;2098428;28;20020;-81
2021/04/17 03:26:46;;;;;;;9.65;8.85;;;;;;;-2.16;98.27;93331.56;2090239;28;20136;-81
2021/04/17 03:27:46;;;;;;;9.50;8.35;;;;;;;-2.14;98.57;93324.91;2081672;28;20398;-81
2021/04/17 03:28:47;;;;;;;10.25;9.43;;;;;;;-2.13;98.51;93326.44;2081850;28;20131;-81
2021/04/17 03:29:47;;;;;;;10.05;9.15;;;;;;;-2.14;98.74;93313.69;2098410;28;20051;-81
2021/04/17 03:30:47;;;;;;;10.18;9.38;;;;;;;-2.13;98.63;93329.06;2090155;28;20096;-80
2021/04/17 03:31:48;;;;;;;10.20;9.30;;;;;;;-2.14;98.32;93327.53;2097882;28;20103;-81
2021/04/17 03:32:48;;;;;;;10.23;9.32;;;;;;;-2.11;97.79;93332.13;2089965;28;20050;-81
2021/04/17 03:33:48;;;;;;;10.80;9.80;;;;;;;-2.16;98.34;93321.84;2089968;28;20524;-81
2021/04/17 03:34:49;;;;;;;10.20;9.25;;;;;;;-2.16;98.47;93321.84;2089945;28;20029;-81
2021/04/17 03:35:49;;;;;;;10.35;9.38;;;;;;;-2.23;98.73;93321.66;2081759;28;20017;-81
2021/04/17 03:36:50;;;;;;;10.10;9.10;;;;;;;-2.23;98.88;93320.91;2081194;28;20026;-81
2021/04/17 03:37:50;;;;;;;10.55;8.88;;;;;;;-2.15;98.98;93323.41;2089930;28;20486;-81
2021/04/17 03:38:51;;;;;;;10.32;9.43;;;;;;;-2.20;98.56;93323.59;2081836;28;20079;-81
2021/04/17 03:39:51;;;;;;;10.63;9.70;;;;;;;-2.21;98.60;93314.22;2093439;28;20059;-81
2021/04/17 03:40:52;;;;;;;10.02;9.18;;;;;;;-2.17;99.21;93314.34;2106697;28;20032;-81
2021/04/17 03:41:52;;;;;;;10.90;9.90;;;;;;;-2.24;99.20;93314.88;2098311;28;20056;-80
2021/04/17 03:42:53;;;;;;;10.05;9.15;;;;;;;-2.22;99.13;93317.94;2081634;28;20053;-80
2021/04/17 03:43:53;;;;;;;10.50;9.60;;;;;;;-2.22;98.94;93314.56;2089902;28;20064;-81
2021/04/17 03:44:54;;;;;;;10.55;9.65;;;;;;;-2.24;98.83;93314.88;2090288;28;20098;-81
2021/04/17 03:45:54;;;;;;;10.52;9.63;;;;;;;-2.26;99.28;93311.84;2089473;28;20052;-82
2021/04/17 03:46:55;;;;;;;10.40;9.50;;;;;;;-2.24;99.58;93317.50;2090056;28;20061;-81
2021/04/17 03:47:56;;;;;;;10.48;9.48;;;;;;;-2.27;99.62;93318.19;2106634;28;20535;-81
2021/04/17 03:48:56;;;;;;;11.13;10.02;;;;;;;-2.35;99.81;93321.69;2098003;28;20729;-81
2021/04/17 03:49:57;;;;;;;10.57;9.60;;;;;;;-2.31;99.50;93312.84;2106789;28;20105;-81
2021/04/17 03:50:58;;;;;;;10.88;9.77;;;;;;;-2.27;99.02;93315.56;2098269;28;20490;-81
2021/04/17 03:51:58;;;;;;;11.02;10.02;;;;;;;-2.28;98.68;93314.81;2081711;28;20029;-80
2021/04/17 03:52:59;;;;;;;10.15;9.25;;;;;;;-2.25;98.90;93323.84;2089772;28;20040;-82
2021/04/17 03:53:59;;;;;;;10.20;9.30;;;;;;;-2.28;98.39;93319.28;2098067;28;20047;-82
2021/04/17 03:55:00;;;;;;;10.27;9.32;;;;;;;-2.28;98.73;93314.03;2098100;28;20031;-81
2021/04/17 03:56:01;;;;;;;10.63;9.70;;;;;;;-2.25;98.74;93318.59;2106547;28;20031;-82
2021/04/17 03:57:01;;;;;;;10.30;9.40;;;;;;;-2.26;99.23;93324.94;2089849;28;20029;-81
2021/04/17 03:58:01;;;;;;;11.07;9.93;;;;;;;-2.30;98.89;93321.44;2089920;28;20025;-82
2021/04/17 03:59:02;;;;;;;11.40;10.40;;;;;;;-2.31;98.72;93323.31;2089618;28;20539;-81
2021/04/17 04:00:06;;;;;;;10.27;9.38;;;;;;;-2.30;99.02;93318.81;2089966;28;20182;-81
2021/04/17 04:01:07;;;;;;;9.77;8.95;;;;;;;-2.32;99.16;93323.66;2089924;28;20359;-81
2021/04/17 04:02:07;;;;;;;10.57;9.57;;;;;;;-2.33;99.23;93325.50;2081269;28;20845;-81
2021/04/17 04:03:08;;;;;;;11.07;10.07;;;;;;;-2.35;99.05;93317.19;2081755;28;20436;-81
2021/04/17 04:04:08;;;;;;;10.60;9.65;;;;;;;-2.36;99.46;93323.53;2089420;28;20048;-81
2021/04/17 04:05:09;;;;;;;10.10;9.20;;;;;;;-2.37;99.44;93319.41;2091506;28;20032;-81
2021/04/17 04:06:10;;;;;;;10.32;9.43;;;;;;;-2.32;99.39;93328.88;2089994;28;20028;-81
2021/04/17 04:07:10;;;;;;;10.32;9.35;;;;;;;-2.39;98.51;93326.03;2097802;28;21113;-81
2021/04/17 04:08:11;;;;;;;10.52;9.63;;;;;;;-2.44;99.03;93321.78;2089864;28;20033;-81
2021/04/17 04:09:11;;;;;;;10.60;9.70;;;;;;;-2.48;98.98;93330.63;2087376;28;20168;-81
2021/04/17 04:10:13;;;;;;;10.82;9.82;;;;;;;-2.48;99.51;93325.41;2089875;28;20462;-81
2021/04/17 04:11:13;;;;;;;10.30;9.40;;;;;;;-2.51;99.52;93318.19;2098304;28;20024;-81
2021/04/17 04:12:15;;;;;;;10.30;9.30;;;;;;;-2.55;99.08;93331.16;2089272;28;20451;-81
2021/04/17 04:13:15;;;;;;;9.98;9.13;;;;;;;-2.60;98.99;93321.69;2081535;28;20510;-81
2021/04/17 04:14:15;;;;;;;10.18;9.32;;;;;;;-2.62;98.78;93334.34;2081440;28;20440;-81
2021/04/17 04:15:16;;;;;;;10.23;9.32;;;;;;;-2.72;97.92;93329.56;2089925;28;20029;-81
2021/04/17 04:16:17;;;;;;;9.88;9.07;;;;;;;-2.70;98.33;93329.97;2098068;28;20056;-81
2021/04/17 04:17:17;;;;;;;10.25;9.40;;;;;;;-2.70;98.17;93334.44;2089549;28;20040;-81
2021/04/17 04:18:18;;;;;;;10.60;9.70;;;;;;;-2.70;97.56;93329.97;2081559;28;20127;-80
2021/04/17 04:19:18;;;;;;;10.30;9.40;;;;;;;-2.63;98.60;93332.06;2089568;28;20111;-81
2021/04/17 04:20:18;;;;;;;10.68;9.77;;;;;;;-2.61;98.16;93329.88;2097994;28;20059;-81
2021/04/17 04:21:19;;;;;;;10.65;9.68;;;;;;;-2.68;98.79;93335.63;2089941;28;20115;-81
2021/04/17 04:22:19;;;;;;;10.48;9.55;;;;;;;-2.69;98.71;93328.88;2089446;28;20067;-81
2021/04/17 04:23:20;;;;;;;10.32;9.15;;;;;;;-2.70;99.10;93331.81;2098069;28;20033;-81
2021/04/17 04:24:20;;;;;;;10.88;9.88;;;;;;;-2.72;98.69;93337.41;2089223;28;20025;-80
2021/04/17 04:25:21;;;;;;;10.32;9.43;;;;;;;-2.76;98.73;93328.66;2081051;28;20028;-80
2021/04/17 04:26:21;;;;;;;10.50;9.52;;;;;;;-2.74;98.79;93334.31;2088553;28;20056;-80
2021/04/17 04:27:22;;;;;;;11.35;10.35;;;;;;;-2.78;99.24;93333.44;2093496;28;20120;-81
2021/04/17 04:28:22;;;;;;;10.77;9.73;;;;;;;-2.79;98.79;93335.31;2089464;28;20029;-81
2021/04/17 04:29:23;;;;;;;11.15;10.15;;;;;;;-2.79;98.93;93339.78;2089681;28;20040;-80
2021/04/17 04:30:24;;;;;;;10.27;9.38;;;;;;;-2.80;98.64;93330.41;2097854;28;20070;-80
2021/04/17 04:31:24;;;;;;;11.13;10.13;;;;;;;-2.78;98.59;93330.84;2097660;28;20024;-80
2021/04/17 04:32:25;;;;;;;10.57;9.68;;;;;;;-2.78;98.66;93339.44;2089469;28;20556;-80
2021/04/17 04:33:26;;;;;;;11.50;10.50;;;;;;;-2.77;99.01;93340.19;2089344;28;20055;-80
2021/04/17 04:34:26;;;;;;;11.55;10.30;;;;;;;-2.78;99.59;93338.69;2097762;28;20025;-80
2021/04/17 04:35:26;;;;;;;10.57;9.57;;;;;;;-2.74;99.82;93342.16;2097942;28;20504;-81
2021/04/17 04:36:27;;;;;;;11.27;10.10;;;;;;;-2.73;99.90;93333.22;2098059;28;20086;-80
2021/04/17 04:37:27;;;;;;;11.95;10.85;;;;;;;-2.72;99.59;93342.63;2089210;28;20445;-80
2021/04/17 04:38:28;;;;;;;11.45;10.25;;;;;;;-2.71;99.59;93336.31;2089524;28;20393;-81
2021/04/17 04:39:28;;;;;;;11.60;10.60;;;;;;;-2.71;99.21;93336.31;2097792;28;20059;-81
2021/04/17 04:40:29;;;;;;;11.05;10.07;;;;;;;-2.71;99.96;93349.38;2089742;28;20033;-81
2021/04/17 04:41:29;;;;;;;12.27;11.18;;;;;;;-2.70;100.00;93342.28;2081305;28;20064;-80
2021/04/17 04:42:30;;;;;;;12.43;11.23;;;;;;;-2.73;99.99;93348.16;2080702;28;20070;-81
2021/04/17 04:43:30;;;;;;;11.50;10.38;;;;;;;-2.69;100.00;93347.19;2081286;28;20032;-80
2021/04/17 04:44:31;;;;;;;11.50;10.40;;;;;;;-2.67;100.00;93342.41;2081129;28;20082;-80
2021/04/17 04:45:31;;;;;;;11.02;10.02;;;;;;;-2.66;100.00;93343.16;2089537;28;20108;-80
2021/04/17 04:46:33;;;;;;;11.18;10.13;;;;;;;-2.60;100.00;93341.84;2097586;28;20158;-81
2021/04/17 04:47:34;;;;;;;10.70;9.80;;;;;;;-2.65;99.59;93342.06;2089438;28;20029;-81
2021/04/17 04:48:34;;;;;;;11.70;10.60;;;;;;;-2.64;100.00;93352.19;2089425;28;20431;-80
2021/04/17 04:49:35;;;;;;;12.35;11.05;;;;;;;-2.67;99.98;93342.41;2097553;28;21006;-80
2021/04/17 04:50:39;;;;;;;11.13;10.13;;;;;;;-2.65;100.00;93350.69;2097712;28;20033;-81
2021/04/17 04:51:39;;;;;;;16.42;10.57;;;;;;;-2.62;100.00;93351.91;2089922;28;20666;-81
2021/04/17 04:52:40;;;;;;;11.88;10.77;;;;;;;-2.61;100.00;93351.56;2089334;28;20508;-81
2021/04/17 04:53:41;;;;;;;13.27;10.57;;;;;;;-2.57;100.00;93349.81;2080982;28;20025;-80
2021/04/17 04:54:41;;;;;;;11.38;10.23;;;;;;;-2.62;100.00;93354.50;2081012;28;20025;-81
2021/04/17 04:55:41;;;;;;;18.23;10.82;;;;;;;-2.47;100.00;93350.47;2085817;28;20474;-80
2021/04/17 04:56:42;;;;;;;11.45;10.35;;;;;;;-2.44;99.62;93349.81;2081139;28;20029;-80
2021/04/17 04:57:42;;;;;;;11.10;10.00;;;;;;;-2.46;99.40;93349.38;2097471;28;20531;-80
2021/04/17 04:58:43;;;;;;;15.52;11.82;;;;;;;-2.41;100.00;93349.94;2097723;28;20028;-81